< < Back
Terminal Aerodrome Forecast


Current Version              Previous Versions:   1  2  3  4  5  6  7  8  9  

Terminal Aerodrome Forecast

809
FTUS42 KGSP 051725
TAFAVL
TAF
KAVL 051725Z 0518/0618 16003KT P6SM BKN060
     FM060000 17003KT P6SM SCT060
     FM060200 00000KT P6SM SCT200
      TEMPO 0610/0612 5SM BR FEW250
     FM061200 34005KT P6SM FEW250=

Latest METAR

008
SAUS70 KWBC 060100 RRE
MTRAVL
METAR KAVL 060054Z 00000KT 10SM FEW080 19/11 A3030 RMK AO2 SLP242
T01940106


USA.gov is the U.S. government's official web portal to all federal, state and local government web resources and services.